sensor_id;sensor_type;location;lat;lon;timestamp;temperature;humidity
76139;DHT22;65138;50.946;7.074;2022-12-13T00:01:33;16.20;45.80
76139;DHT22;65138;50.946;7.074;2022-12-13T00:04:01;16.20;45.80
76139;DHT22;65138;50.946;7.074;2022-12-13T00:06:28;16.20;45.80
76139;DHT22;65138;50.946;7.074;2022-12-13T00:08:55;16.20;45.80
76139;DHT22;65138;50.946;7.074;2022-12-13T00:11:21;16.20;45.80
76139;DHT22;65138;50.946;7.074;2022-12-13T00:13:47;16.10;45.70
76139;DHT22;65138;50.946;7.074;2022-12-13T00:16:18;16.20;45.80
76139;DHT22;65138;50.946;7.074;2022-12-13T00:18:47;16.10;45.70
76139;DHT22;65138;50.946;7.074;2022-12-13T00:21:16;16.20;45.80
76139;DHT22;65138;50.946;7.074;2022-12-13T00:23:42;16.10;45.70
76139;DHT22;65138;50.946;7.074;2022-12-13T00:26:20;16.10;45.90
76139;DHT22;65138;50.946;7.074;2022-12-13T00:28:46;16.10;45.80
76139;DHT22;65138;50.946;7.074;2022-12-13T00:31:14;16.10;45.80
76139;DHT22;65138;50.946;7.074;2022-12-13T00:33:40;16.10;45.70
76139;DHT22;65138;50.946;7.074;2022-12-13T00:36:06;16.10;45.70
76139;DHT22;65138;50.946;7.074;2022-12-13T00:38:34;16.10;45.70
76139;DHT22;65138;50.946;7.074;2022-12-13T00:41:09;16.10;45.80
76139;DHT22;65138;50.946;7.074;2022-12-13T00:43:34;16.10;45.70
76139;DHT22;65138;50.946;7.074;2022-12-13T00:46:00;16.10;45.80
76139;DHT22;65138;50.946;7.074;2022-12-13T00:48:25;16.00;45.80
76139;DHT22;65138;50.946;7.074;2022-12-13T00:50:52;16.00;45.70
76139;DHT22;65138;50.946;7.074;2022-12-13T00:53:17;16.00;45.70
76139;DHT22;65138;50.946;7.074;2022-12-13T00:55:43;16.00;45.60
76139;DHT22;65138;50.946;7.074;2022-12-13T00:58:08;16.00;45.70
76139;DHT22;65138;50.946;7.074;2022-12-13T01:00:34;16.00;45.80
76139;DHT22;65138;50.946;7.074;2022-12-13T01:03:00;16.00;45.60
76139;DHT22;65138;50.946;7.074;2022-12-13T01:05:47;16.00;45.80
76139;DHT22;65138;50.946;7.074;2022-12-13T01:08:13;16.00;45.80
76139;DHT22;65138;50.946;7.074;2022-12-13T01:10:44;16.00;45.70
76139;DHT22;65138;50.946;7.074;2022-12-13T01:13:10;16.00;45.70
76139;DHT22;65138;50.946;7.074;2022-12-13T01:15:40;16.00;45.70
76139;DHT22;65138;50.946;7.074;2022-12-13T01:18:06;16.00;45.70
76139;DHT22;65138;50.946;7.074;2022-12-13T01:20:32;15.90;45.70
76139;DHT22;65138;50.946;7.074;2022-12-13T01:22:57;15.90;45.70
76139;DHT22;65138;50.946;7.074;2022-12-13T01:25:23;15.90;45.70
76139;DHT22;65138;50.946;7.074;2022-12-13T01:27:48;15.90;45.70
76139;DHT22;65138;50.946;7.074;2022-12-13T01:30:14;15.90;45.70
76139;DHT22;65138;50.946;7.074;2022-12-13T01:32:39;15.90;45.70
76139;DHT22;65138;50.946;7.074;2022-12-13T01:35:05;15.90;45.70
76139;DHT22;65138;50.946;7.074;2022-12-13T01:37:31;15.90;45.80
76139;DHT22;65138;50.946;7.074;2022-12-13T01:39:56;15.90;45.70
76139;DHT22;65138;50.946;7.074;2022-12-13T01:42:22;15.90;45.60
76139;DHT22;65138;50.946;7.074;2022-12-13T01:45:00;15.90;45.70
76139;DHT22;65138;50.946;7.074;2022-12-13T01:47:36;15.90;45.60
76139;DHT22;65138;50.946;7.074;2022-12-13T01:50:14;15.80;45.60
76139;DHT22;65138;50.946;7.074;2022-12-13T01:52:41;15.80;45.70
76139;DHT22;65138;50.946;7.074;2022-12-13T01:55:09;15.80;45.60
76139;DHT22;65138;50.946;7.074;2022-12-13T01:57:37;15.80;45.60
76139;DHT22;65138;50.946;7.074;2022-12-13T02:00:05;15.80;45.60
76139;DHT22;65138;50.946;7.074;2022-12-13T02:02:32;15.80;45.70
76139;DHT22;65138;50.946;7.074;2022-12-13T02:05:14;15.80;45.50
76139;DHT22;65138;50.946;7.074;2022-12-13T02:07:43;15.80;45.70
76139;DHT22;65138;50.946;7.074;2022-12-13T02:10:10;15.80;45.70
76139;DHT22;65138;50.946;7.074;2022-12-13T02:12:37;15.80;45.50
76139;DHT22;65138;50.946;7.074;2022-12-13T02:15:06;15.80;45.50
76139;DHT22;65138;50.946;7.074;2022-12-13T02:18:00;15.80;46.20
76139;DHT22;65138;50.946;7.074;2022-12-13T02:20:47;15.80;45.70
76139;DHT22;65138;50.946;7.074;2022-12-13T02:26:45;15.80;45.60
76139;DHT22;65138;50.946;7.074;2022-12-13T02:29:22;15.70;45.60
76139;DHT22;65138;50.946;7.074;2022-12-13T02:32:13;15.70;45.60
76139;DHT22;65138;50.946;7.074;2022-12-13T02:35:03;15.70;45.60
76139;DHT22;65138;50.946;7.074;2022-12-13T02:37:46;15.70;45.50
76139;DHT22;65138;50.946;7.074;2022-12-13T02:40:23;15.70;45.60
76139;DHT22;65138;50.946;7.074;2022-12-13T02:43:13;15.70;45.60
76139;DHT22;65138;50.946;7.074;2022-12-13T02:45:46;15.70;45.50
76139;DHT22;65138;50.946;7.074;2022-12-13T02:48:16;15.70;45.50
76139;DHT22;65138;50.946;7.074;2022-12-13T02:50:42;15.70;45.50
76139;DHT22;65138;50.946;7.074;2022-12-13T02:53:08;15.70;45.50
76139;DHT22;65138;50.946;7.074;2022-12-13T02:55:38;15.70;45.50
76139;DHT22;65138;50.946;7.074;2022-12-13T02:58:04;15.70;45.50
76139;DHT22;65138;50.946;7.074;2022-12-13T03:00:56;15.70;45.40
76139;DHT22;65138;50.946;7.074;2022-12-13T03:03:41;15.70;45.40
76139;DHT22;65138;50.946;7.074;2022-12-13T03:14:59;15.70;45.40
76139;DHT22;65138;50.946;7.074;2022-12-13T03:17:30;15.70;45.30
76139;DHT22;65138;50.946;7.074;2022-12-13T03:19:58;15.70;45.40
76139;DHT22;65138;50.946;7.074;2022-12-13T03:22:23;15.70;45.30
76139;DHT22;65138;50.946;7.074;2022-12-13T03:24:51;15.70;45.50
76139;DHT22;65138;50.946;7.074;2022-12-13T03:27:17;15.70;45.30
76139;DHT22;65138;50.946;7.074;2022-12-13T03:29:42;15.70;45.30
76139;DHT22;65138;50.946;7.074;2022-12-13T03:32:08;15.70;45.30
76139;DHT22;65138;50.946;7.074;2022-12-13T03:34:33;15.70;45.30
76139;DHT22;65138;50.946;7.074;2022-12-13T03:36:59;15.70;45.30
76139;DHT22;65138;50.946;7.074;2022-12-13T03:39:25;15.70;45.30
76139;DHT22;65138;50.946;7.074;2022-12-13T03:41:50;15.70;45.30
76139;DHT22;65138;50.946;7.074;2022-12-13T03:44:16;15.70;45.30
76139;DHT22;65138;50.946;7.074;2022-12-13T03:46:43;15.70;45.50
76139;DHT22;65138;50.946;7.074;2022-12-13T03:49:08;15.70;45.30
76139;DHT22;65138;50.946;7.074;2022-12-13T03:51:34;15.70;45.30
76139;DHT22;65138;50.946;7.074;2022-12-13T03:53:59;15.60;45.30
76139;DHT22;65138;50.946;7.074;2022-12-13T03:56:25;15.70;45.20
76139;DHT22;65138;50.946;7.074;2022-12-13T03:58:51;15.70;45.20
76139;DHT22;65138;50.946;7.074;2022-12-13T04:01:17;15.60;45.20
76139;DHT22;65138;50.946;7.074;2022-12-13T04:03:45;15.70;45.40
76139;DHT22;65138;50.946;7.074;2022-12-13T04:06:11;15.70;45.30
76139;DHT22;65138;50.946;7.074;2022-12-13T04:08:38;15.60;45.10
76139;DHT22;65138;50.946;7.074;2022-12-13T04:11:04;15.60;45.30
76139;DHT22;65138;50.946;7.074;2022-12-13T04:13:52;15.60;45.20
76139;DHT22;65138;50.946;7.074;2022-12-13T04:16:17;15.60;45.30
76139;DHT22;65138;50.946;7.074;2022-12-13T04:18:43;15.60;45.30
76139;DHT22;65138;50.946;7.074;2022-12-13T04:21:09;15.60;45.20
76139;DHT22;65138;50.946;7.074;2022-12-13T04:23:34;15.60;45.20
76139;DHT22;65138;50.946;7.074;2022-12-13T04:26:00;15.60;45.20
76139;DHT22;65138;50.946;7.074;2022-12-13T04:28:26;15.60;45.30
76139;DHT22;65138;50.946;7.074;2022-12-13T04:30:52;15.60;45.30
76139;DHT22;65138;50.946;7.074;2022-12-13T04:33:18;15.60;45.30
76139;DHT22;65138;50.946;7.074;2022-12-13T04:35:46;15.50;45.30
76139;DHT22;65138;50.946;7.074;2022-12-13T04:38:11;15.60;45.20
76139;DHT22;65138;50.946;7.074;2022-12-13T04:40:37;15.60;45.20
76139;DHT22;65138;50.946;7.074;2022-12-13T04:43:03;15.60;45.30
76139;DHT22;65138;50.946;7.074;2022-12-13T04:45:30;15.60;45.30
76139;DHT22;65138;50.946;7.074;2022-12-13T04:47:55;15.60;45.10
76139;DHT22;65138;50.946;7.074;2022-12-13T04:50:21;15.50;45.10
76139;DHT22;65138;50.946;7.074;2022-12-13T04:52:46;15.50;45.10
76139;DHT22;65138;50.946;7.074;2022-12-13T04:55:12;15.60;45.10
76139;DHT22;65138;50.946;7.074;2022-12-13T04:57:38;15.50;45.10
76139;DHT22;65138;50.946;7.074;2022-12-13T05:00:06;15.60;45.10
76139;DHT22;65138;50.946;7.074;2022-12-13T05:02:33;15.50;45.10
76139;DHT22;65138;50.946;7.074;2022-12-13T05:04:58;15.50;45.00
76139;DHT22;65138;50.946;7.074;2022-12-13T05:07:25;15.50;45.20
76139;DHT22;65138;50.946;7.074;2022-12-13T05:09:51;15.60;45.10
76139;DHT22;65138;50.946;7.074;2022-12-13T05:12:17;15.60;44.90
76139;DHT22;65138;50.946;7.074;2022-12-13T05:14:42;15.60;44.90
76139;DHT22;65138;50.946;7.074;2022-12-13T05:17:08;15.70;44.80
76139;DHT22;65138;50.946;7.074;2022-12-13T05:19:34;15.70;44.60
76139;DHT22;65138;50.946;7.074;2022-12-13T05:21:59;15.80;44.70
76139;DHT22;65138;50.946;7.074;2022-12-13T05:24:25;15.80;44.50
76139;DHT22;65138;50.946;7.074;2022-12-13T05:26:51;15.90;44.50
76139;DHT22;65138;50.946;7.074;2022-12-13T05:29:16;15.90;44.40
76139;DHT22;65138;50.946;7.074;2022-12-13T05:31:42;15.90;44.40
76139;DHT22;65138;50.946;7.074;2022-12-13T05:34:08;16.00;44.40
76139;DHT22;65138;50.946;7.074;2022-12-13T05:36:34;16.00;44.40
76139;DHT22;65138;50.946;7.074;2022-12-13T05:38:59;16.00;44.20
76139;DHT22;65138;50.946;7.074;2022-12-13T05:41:26;16.10;44.30
76139;DHT22;65138;50.946;7.074;2022-12-13T05:43:53;16.10;44.30
76139;DHT22;65138;50.946;7.074;2022-12-13T05:46:19;16.00;44.20
76139;DHT22;65138;50.946;7.074;2022-12-13T05:48:45;16.00;44.20
76139;DHT22;65138;50.946;7.074;2022-12-13T05:51:11;16.10;44.20
76139;DHT22;65138;50.946;7.074;2022-12-13T05:53:37;16.10;44.20
76139;DHT22;65138;50.946;7.074;2022-12-13T05:56:03;16.10;44.20
76139;DHT22;65138;50.946;7.074;2022-12-13T05:58:29;16.10;44.10
76139;DHT22;65138;50.946;7.074;2022-12-13T06:00:54;16.10;44.40
76139;DHT22;65138;50.946;7.074;2022-12-13T06:03:20;16.20;44.20
76139;DHT22;65138;50.946;7.074;2022-12-13T06:05:45;16.20;44.10
76139;DHT22;65138;50.946;7.074;2022-12-13T06:08:12;16.20;44.10
76139;DHT22;65138;50.946;7.074;2022-12-13T06:10:38;16.20;44.10
76139;DHT22;65138;50.946;7.074;2022-12-13T06:13:04;16.20;44.10
76139;DHT22;65138;50.946;7.074;2022-12-13T06:15:30;16.20;44.00
76139;DHT22;65138;50.946;7.074;2022-12-13T06:17:58;16.20;43.90
76139;DHT22;65138;50.946;7.074;2022-12-13T06:20:24;16.20;44.00
76139;DHT22;65138;50.946;7.074;2022-12-13T06:22:52;16.30;44.00
76139;DHT22;65138;50.946;7.074;2022-12-13T06:25:19;16.30;44.00
76139;DHT22;65138;50.946;7.074;2022-12-13T06:27:44;16.30;43.90
76139;DHT22;65138;50.946;7.074;2022-12-13T06:30:10;16.30;43.90
76139;DHT22;65138;50.946;7.074;2022-12-13T06:32:36;16.30;43.90
76139;DHT22;65138;50.946;7.074;2022-12-13T06:35:02;16.30;44.20
76139;DHT22;65138;50.946;7.074;2022-12-13T06:37:27;16.30;43.90
76139;DHT22;65138;50.946;7.074;2022-12-13T06:39:53;16.30;43.70
76139;DHT22;65138;50.946;7.074;2022-12-13T06:42:18;16.30;43.60
76139;DHT22;65138;50.946;7.074;2022-12-13T06:44:44;16.10;44.00
76139;DHT22;65138;50.946;7.074;2022-12-13T06:47:10;15.90;44.40
76139;DHT22;65138;50.946;7.074;2022-12-13T06:49:36;16.30;44.40
76139;DHT22;65138;50.946;7.074;2022-12-13T06:52:02;16.50;44.60
76139;DHT22;65138;50.946;7.074;2022-12-13T06:54:28;16.60;44.00
76139;DHT22;65138;50.946;7.074;2022-12-13T06:56:53;16.70;44.10
76139;DHT22;65138;50.946;7.074;2022-12-13T06:59:19;16.80;44.20
76139;DHT22;65138;50.946;7.074;2022-12-13T07:01:45;16.90;44.30
76139;DHT22;65138;50.946;7.074;2022-12-13T07:04:11;16.90;44.50
76139;DHT22;65138;50.946;7.074;2022-12-13T07:06:37;16.70;44.10
76139;DHT22;65138;50.946;7.074;2022-12-13T07:09:03;16.80;43.70
76139;DHT22;65138;50.946;7.074;2022-12-13T07:11:31;16.90;43.70
76139;DHT22;65138;50.946;7.074;2022-12-13T07:14:00;17.00;43.60
76139;DHT22;65138;50.946;7.074;2022-12-13T07:16:27;17.10;43.70
76139;DHT22;65138;50.946;7.074;2022-12-13T07:18:54;17.20;43.70
76139;DHT22;65138;50.946;7.074;2022-12-13T07:21:20;17.20;43.70
76139;DHT22;65138;50.946;7.074;2022-12-13T07:23:46;17.20;43.70
76139;DHT22;65138;50.946;7.074;2022-12-13T07:26:12;17.20;43.70
76139;DHT22;65138;50.946;7.074;2022-12-13T07:28:38;17.30;43.70
76139;DHT22;65138;50.946;7.074;2022-12-13T07:31:06;17.30;43.60
76139;DHT22;65138;50.946;7.074;2022-12-13T07:33:32;17.60;43.50
76139;DHT22;65138;50.946;7.074;2022-12-13T07:36:06;17.60;43.30
76139;DHT22;65138;50.946;7.074;2022-12-13T07:38:33;17.70;43.00
76139;DHT22;65138;50.946;7.074;2022-12-13T07:40:58;17.80;43.00
76139;DHT22;65138;50.946;7.074;2022-12-13T07:43:24;17.80;43.00
76139;DHT22;65138;50.946;7.074;2022-12-13T07:45:53;17.90;42.80
76139;DHT22;65138;50.946;7.074;2022-12-13T07:48:19;17.90;42.90
76139;DHT22;65138;50.946;7.074;2022-12-13T07:50:45;17.90;42.60
76139;DHT22;65138;50.946;7.074;2022-12-13T07:53:10;17.90;42.80
76139;DHT22;65138;50.946;7.074;2022-12-13T07:55:37;17.90;42.70
76139;DHT22;65138;50.946;7.074;2022-12-13T07:58:08;17.90;42.70
76139;DHT22;65138;50.946;7.074;2022-12-13T08:00:38;17.80;43.10
76139;DHT22;65138;50.946;7.074;2022-12-13T08:03:05;17.70;42.70
76139;DHT22;65138;50.946;7.074;2022-12-13T08:05:31;17.70;42.40
76139;DHT22;65138;50.946;7.074;2022-12-13T08:07:56;17.70;42.60
76139;DHT22;65138;50.946;7.074;2022-12-13T08:10:22;17.80;42.60
76139;DHT22;65138;50.946;7.074;2022-12-13T08:12:48;17.80;42.70
76139;DHT22;65138;50.946;7.074;2022-12-13T08:15:14;17.80;42.70
76139;DHT22;65138;50.946;7.074;2022-12-13T08:17:40;17.90;42.80
76139;DHT22;65138;50.946;7.074;2022-12-13T08:20:06;17.90;42.70
76139;DHT22;65138;50.946;7.074;2022-12-13T08:22:32;17.90;42.80
76139;DHT22;65138;50.946;7.074;2022-12-13T08:24:58;18.00;42.70
76139;DHT22;65138;50.946;7.074;2022-12-13T08:27:23;17.90;43.30
76139;DHT22;65138;50.946;7.074;2022-12-13T08:29:49;17.80;42.80
76139;DHT22;65138;50.946;7.074;2022-12-13T08:32:15;17.80;42.40
76139;DHT22;65138;50.946;7.074;2022-12-13T08:34:41;17.60;41.60
76139;DHT22;65138;50.946;7.074;2022-12-13T08:37:06;17.70;41.70
76139;DHT22;65138;50.946;7.074;2022-12-13T08:39:34;17.70;41.50
76139;DHT22;65138;50.946;7.074;2022-12-13T08:42:02;17.80;40.80
76139;DHT22;65138;50.946;7.074;2022-12-13T08:44:27;17.90;41.20
76139;DHT22;65138;50.946;7.074;2022-12-13T08:46:53;18.10;41.40
76139;DHT22;65138;50.946;7.074;2022-12-13T08:49:19;18.00;41.00
76139;DHT22;65138;50.946;7.074;2022-12-13T08:51:44;18.00;40.80
76139;DHT22;65138;50.946;7.074;2022-12-13T08:54:10;18.30;40.90
76139;DHT22;65138;50.946;7.074;2022-12-13T08:56:36;18.20;41.20
76139;DHT22;65138;50.946;7.074;2022-12-13T08:59:01;18.20;41.50
76139;DHT22;65138;50.946;7.074;2022-12-13T09:01:27;18.20;41.50
76139;DHT22;65138;50.946;7.074;2022-12-13T09:03:54;18.20;41.70
76139;DHT22;65138;50.946;7.074;2022-12-13T09:06:20;18.20;41.20
76139;DHT22;65138;50.946;7.074;2022-12-13T09:08:46;18.00;41.10
76139;DHT22;65138;50.946;7.074;2022-12-13T09:11:12;18.00;41.00
76139;DHT22;65138;50.946;7.074;2022-12-13T09:13:38;17.80;41.00
76139;DHT22;65138;50.946;7.074;2022-12-13T09:16:15;17.80;41.30
76139;DHT22;65138;50.946;7.074;2022-12-13T09:18:42;17.90;42.60
76139;DHT22;65138;50.946;7.074;2022-12-13T09:21:12;18.10;42.00
76139;DHT22;65138;50.946;7.074;2022-12-13T09:23:38;18.10;42.40
76139;DHT22;65138;50.946;7.074;2022-12-13T09:26:06;18.20;42.40
76139;DHT22;65138;50.946;7.074;2022-12-13T09:28:33;17.90;41.90
76139;DHT22;65138;50.946;7.074;2022-12-13T09:30:59;18.00;42.10
76139;DHT22;65138;50.946;7.074;2022-12-13T09:33:25;18.00;42.80
76139;DHT22;65138;50.946;7.074;2022-12-13T09:35:51;18.20;42.40
76139;DHT22;65138;50.946;7.074;2022-12-13T09:38:18;18.10;41.90
76139;DHT22;65138;50.946;7.074;2022-12-13T09:40:46;18.10;41.90
76139;DHT22;65138;50.946;7.074;2022-12-13T09:43:21;18.20;41.90
76139;DHT22;65138;50.946;7.074;2022-12-13T09:45:48;18.50;42.00
76139;DHT22;65138;50.946;7.074;2022-12-13T09:48:19;18.60;42.00
76139;DHT22;65138;50.946;7.074;2022-12-13T09:50:46;18.60;42.10
76139;DHT22;65138;50.946;7.074;2022-12-13T09:53:14;18.60;42.00
76139;DHT22;65138;50.946;7.074;2022-12-13T09:55:44;18.70;42.00
76139;DHT22;65138;50.946;7.074;2022-12-13T09:58:17;18.60;42.40
76139;DHT22;65138;50.946;7.074;2022-12-13T10:00:47;18.60;41.80
76139;DHT22;65138;50.946;7.074;2022-12-13T10:03:14;18.70;42.40
76139;DHT22;65138;50.946;7.074;2022-12-13T10:05:44;18.70;42.20
76139;DHT22;65138;50.946;7.074;2022-12-13T10:08:21;18.60;41.90
76139;DHT22;65138;50.946;7.074;2022-12-13T10:10:49;18.60;42.40
76139;DHT22;65138;50.946;7.074;2022-12-13T10:13:26;18.50;42.70
76139;DHT22;65138;50.946;7.074;2022-12-13T10:16:07;18.60;42.40
76139;DHT22;65138;50.946;7.074;2022-12-13T10:18:36;18.80;42.10
76139;DHT22;65138;50.946;7.074;2022-12-13T10:21:06;18.90;41.90
76139;DHT22;65138;50.946;7.074;2022-12-13T10:23:34;18.80;42.10
76139;DHT22;65138;50.946;7.074;2022-12-13T10:26:00;18.60;42.00
76139;DHT22;65138;50.946;7.074;2022-12-13T10:28:28;18.70;42.10
76139;DHT22;65138;50.946;7.074;2022-12-13T10:30:56;18.40;41.40
76139;DHT22;65138;50.946;7.074;2022-12-13T10:33:36;18.00;41.20
76139;DHT22;65138;50.946;7.074;2022-12-13T10:38:34;17.70;41.60
76139;DHT22;65138;50.946;7.074;2022-12-13T10:41:00;16.90;38.30
76139;DHT22;65138;50.946;7.074;2022-12-13T10:43:26;16.20;42.00
76139;DHT22;65138;50.946;7.074;2022-12-13T10:48:33;17.50;40.80
76139;DHT22;65138;50.946;7.074;2022-12-13T10:51:02;17.90;40.80
76139;DHT22;65138;50.946;7.074;2022-12-13T10:53:31;18.30;40.60
76139;DHT22;65138;50.946;7.074;2022-12-13T10:55:57;18.40;40.90
76139;DHT22;65138;50.946;7.074;2022-12-13T10:58:33;18.50;41.10
76139;DHT22;65138;50.946;7.074;2022-12-13T11:01:18;18.50;41.30
76139;DHT22;65138;50.946;7.074;2022-12-13T11:06:21;18.40;41.20
76139;DHT22;65138;50.946;7.074;2022-12-13T11:08:46;18.40;41.10
76139;DHT22;65138;50.946;7.074;2022-12-13T11:11:16;18.60;41.20
76139;DHT22;65138;50.946;7.074;2022-12-13T11:13:51;18.60;40.70
76139;DHT22;65138;50.946;7.074;2022-12-13T11:18:59;18.90;41.60
76139;DHT22;65138;50.946;7.074;2022-12-13T11:21:32;18.80;41.60
76139;DHT22;65138;50.946;7.074;2022-12-13T11:24:05;18.70;41.90
76139;DHT22;65138;50.946;7.074;2022-12-13T11:26:35;18.70;41.90
76139;DHT22;65138;50.946;7.074;2022-12-13T11:29:29;18.60;42.00
76139;DHT22;65138;50.946;7.074;2022-12-13T11:35:20;18.60;42.40
76139;DHT22;65138;50.946;7.074;2022-12-13T11:40:44;18.60;42.00
76139;DHT22;65138;50.946;7.074;2022-12-13T11:45:52;18.60;42.00
76139;DHT22;65138;50.946;7.074;2022-12-13T11:48:42;18.60;42.00
76139;DHT22;65138;50.946;7.074;2022-12-13T11:51:10;18.60;42.10
76139;DHT22;65138;50.946;7.074;2022-12-13T11:53:50;18.60;42.10
76139;DHT22;65138;50.946;7.074;2022-12-13T11:56:32;18.50;42.10
76139;DHT22;65138;50.946;7.074;2022-12-13T11:59:23;18.50;42.00
76139;DHT22;65138;50.946;7.074;2022-12-13T12:01:59;18.50;42.10
76139;DHT22;65138;50.946;7.074;2022-12-13T12:04:46;18.50;42.00
76139;DHT22;65138;50.946;7.074;2022-12-13T12:07:18;18.50;42.10
76139;DHT22;65138;50.946;7.074;2022-12-13T12:09:58;18.50;42.10
76139;DHT22;65138;50.946;7.074;2022-12-13T12:12:34;18.40;42.20
76139;DHT22;65138;50.946;7.074;2022-12-13T12:15:16;18.40;42.00
76139;DHT22;65138;50.946;7.074;2022-12-13T12:17:43;18.30;42.20
76139;DHT22;65138;50.946;7.074;2022-12-13T12:20:12;18.30;42.20
76139;DHT22;65138;50.946;7.074;2022-12-13T12:23:06;18.20;42.10
76139;DHT22;65138;50.946;7.074;2022-12-13T12:26:02;18.20;42.20
76139;DHT22;65138;50.946;7.074;2022-12-13T12:37:19;17.10;40.90
76139;DHT22;65138;50.946;7.074;2022-12-13T12:49:01;17.70;41.30
76139;DHT22;65138;50.946;7.074;2022-12-13T13:02:56;17.80;41.40
76139;DHT22;65138;50.946;7.074;2022-12-13T13:05:34;17.80;41.50
76139;DHT22;65138;50.946;7.074;2022-12-13T13:08:13;17.80;41.50
76139;DHT22;65138;50.946;7.074;2022-12-13T13:10:41;17.80;41.30
76139;DHT22;65138;50.946;7.074;2022-12-13T13:13:38;17.80;41.30
76139;DHT22;65138;50.946;7.074;2022-12-13T13:16:40;17.80;41.30
76139;DHT22;65138;50.946;7.074;2022-12-13T13:21:49;17.80;41.50
76139;DHT22;65138;50.946;7.074;2022-12-13T13:24:17;17.80;41.70
76139;DHT22;65138;50.946;7.074;2022-12-13T13:26:50;17.80;41.70
76139;DHT22;65138;50.946;7.074;2022-12-13T13:29:21;17.80;41.70
76139;DHT22;65138;50.946;7.074;2022-12-13T13:36:57;17.80;41.80
76139;DHT22;65138;50.946;7.074;2022-12-13T13:50:12;17.80;41.70
76139;DHT22;65138;50.946;7.074;2022-12-13T14:01:28;17.70;41.70
76139;DHT22;65138;50.946;7.074;2022-12-13T14:04:38;17.70;41.90
76139;DHT22;65138;50.946;7.074;2022-12-13T14:10:22;17.80;41.80
76139;DHT22;65138;50.946;7.074;2022-12-13T14:13:16;17.80;41.80
76139;DHT22;65138;50.946;7.074;2022-12-13T14:18:58;17.70;41.90
76139;DHT22;65138;50.946;7.074;2022-12-13T14:27:41;17.40;41.90
76139;DHT22;65138;50.946;7.074;2022-12-13T14:30:17;17.40;41.90
76139;DHT22;65138;50.946;7.074;2022-12-13T14:32:46;17.40;42.10
76139;DHT22;65138;50.946;7.074;2022-12-13T14:35:30;17.30;42.10
76139;DHT22;65138;50.946;7.074;2022-12-13T14:38:03;17.30;42.10
76139;DHT22;65138;50.946;7.074;2022-12-13T14:40:34;17.30;42.20
76139;DHT22;65138;50.946;7.074;2022-12-13T14:43:01;17.30;42.20
76139;DHT22;65138;50.946;7.074;2022-12-13T14:45:35;17.30;42.20
76139;DHT22;65138;50.946;7.074;2022-12-13T14:48:12;17.20;42.20
76139;DHT22;65138;50.946;7.074;2022-12-13T14:50:40;17.20;42.30
76139;DHT22;65138;50.946;7.074;2022-12-13T14:53:26;17.20;42.40
76139;DHT22;65138;50.946;7.074;2022-12-13T14:56:07;17.20;42.30
76139;DHT22;65138;50.946;7.074;2022-12-13T14:58:34;17.20;42.50
76139;DHT22;65138;50.946;7.074;2022-12-13T15:01:02;17.20;42.40
76139;DHT22;65138;50.946;7.074;2022-12-13T15:03:28;17.20;42.40
76139;DHT22;65138;50.946;7.074;2022-12-13T15:05:57;17.10;42.40
76139;DHT22;65138;50.946;7.074;2022-12-13T15:08:24;17.10;42.40
76139;DHT22;65138;50.946;7.074;2022-12-13T15:10:53;17.10;42.50
76139;DHT22;65138;50.946;7.074;2022-12-13T15:13:36;17.10;42.50
76139;DHT22;65138;50.946;7.074;2022-12-13T15:16:07;17.00;42.90
76139;DHT22;65138;50.946;7.074;2022-12-13T15:18:46;17.00;44.20
76139;DHT22;65138;50.946;7.074;2022-12-13T15:21:21;17.40;45.70
76139;DHT22;65138;50.946;7.074;2022-12-13T15:23:51;17.50;45.70
76139;DHT22;65138;50.946;7.074;2022-12-13T15:26:25;17.50;46.20
76139;DHT22;65138;50.946;7.074;2022-12-13T15:28:55;17.50;46.60
76139;DHT22;65138;50.946;7.074;2022-12-13T15:31:21;17.60;47.10
76139;DHT22;65138;50.946;7.074;2022-12-13T15:33:47;17.60;46.30
76139;DHT22;65138;50.946;7.074;2022-12-13T15:36:35;17.10;45.20
76139;DHT22;65138;50.946;7.074;2022-12-13T15:39:02;17.10;44.60
76139;DHT22;65138;50.946;7.074;2022-12-13T15:41:34;17.30;44.00
76139;DHT22;65138;50.946;7.074;2022-12-13T15:46:45;17.40;43.50
76139;DHT22;65138;50.946;7.074;2022-12-13T15:49:34;17.20;43.40
76139;DHT22;65138;50.946;7.074;2022-12-13T15:52:04;17.30;43.30
76139;DHT22;65138;50.946;7.074;2022-12-13T15:54:30;17.40;43.20
76139;DHT22;65138;50.946;7.074;2022-12-13T15:57:14;17.40;43.10
76139;DHT22;65138;50.946;7.074;2022-12-13T15:59:42;17.40;43.10
76139;DHT22;65138;50.946;7.074;2022-12-13T16:04:39;17.50;43.00
76139;DHT22;65138;50.946;7.074;2022-12-13T16:07:05;17.50;43.00
76139;DHT22;65138;50.946;7.074;2022-12-13T16:09:40;17.50;42.90
76139;DHT22;65138;50.946;7.074;2022-12-13T16:12:06;17.50;42.90
76139;DHT22;65138;50.946;7.074;2022-12-13T16:14:50;17.50;42.90
76139;DHT22;65138;50.946;7.074;2022-12-13T16:17:25;17.50;43.00
76139;DHT22;65138;50.946;7.074;2022-12-13T16:19:53;17.50;42.90
76139;DHT22;65138;50.946;7.074;2022-12-13T16:22:19;17.50;42.80
76139;DHT22;65138;50.946;7.074;2022-12-13T16:24:48;17.50;42.90
76139;DHT22;65138;50.946;7.074;2022-12-13T16:27:14;17.50;42.70
76139;DHT22;65138;50.946;7.074;2022-12-13T16:29:39;17.50;42.70
76139;DHT22;65138;50.946;7.074;2022-12-13T16:32:05;17.50;42.70
76139;DHT22;65138;50.946;7.074;2022-12-13T16:34:31;17.50;42.60
76139;DHT22;65138;50.946;7.074;2022-12-13T16:36:56;17.50;42.60
76139;DHT22;65138;50.946;7.074;2022-12-13T16:39:24;17.50;42.60
76139;DHT22;65138;50.946;7.074;2022-12-13T16:41:51;17.60;42.70
76139;DHT22;65138;50.946;7.074;2022-12-13T16:46:51;17.40;42.50
76139;DHT22;65138;50.946;7.074;2022-12-13T16:49:24;17.50;42.50
76139;DHT22;65138;50.946;7.074;2022-12-13T16:51:50;17.50;42.30
76139;DHT22;65138;50.946;7.074;2022-12-13T16:54:17;17.50;42.50
76139;DHT22;65138;50.946;7.074;2022-12-13T16:56:43;17.50;42.40
76139;DHT22;65138;50.946;7.074;2022-12-13T16:59:27;17.50;42.50
76139;DHT22;65138;50.946;7.074;2022-12-13T17:01:53;17.50;42.40
76139;DHT22;65138;50.946;7.074;2022-12-13T17:04:21;17.50;42.60
76139;DHT22;65138;50.946;7.074;2022-12-13T17:06:48;17.50;42.50
76139;DHT22;65138;50.946;7.074;2022-12-13T17:09:14;17.50;42.40
76139;DHT22;65138;50.946;7.074;2022-12-13T17:11:40;17.50;42.50
76139;DHT22;65138;50.946;7.074;2022-12-13T17:14:06;17.50;42.50
76139;DHT22;65138;50.946;7.074;2022-12-13T17:16:31;17.50;42.40
76139;DHT22;65138;50.946;7.074;2022-12-13T17:18:57;17.50;42.40
76139;DHT22;65138;50.946;7.074;2022-12-13T17:21:24;17.50;42.50
76139;DHT22;65138;50.946;7.074;2022-12-13T17:23:57;17.50;42.40
76139;DHT22;65138;50.946;7.074;2022-12-13T17:26:24;17.50;42.50
76139;DHT22;65138;50.946;7.074;2022-12-13T17:28:50;17.50;42.30
76139;DHT22;65138;50.946;7.074;2022-12-13T17:31:15;17.50;42.40
76139;DHT22;65138;50.946;7.074;2022-12-13T17:33:42;17.50;42.50